Terminal Aerodrome Forecast
Issued by NWS

Home | Current Version | Previous Version | Text Only | Print | Product List | Glossary On
Versions: 1 2 3 4 5 6 7 8 9 10 11 12 13 14 15
000
FTUS44 KLZK 261140
TAFHRO
TAF
KHRO 261140Z 2612/2712 34004KT P6SM BKN100
     FM261500 12005KT P6SM FEW060 BKN100
     FM261800 16007KT P6SM SCT060 BKN100
     FM270100 VRB03KT P6SM BKN100=

USA.gov is the U.S. government's official web portal to all federal, state and local government web resources and services.